Time;durP1;ratioP1;P1;durP2;ratioP2;P2;SDS_P1;SDS_P2;PMS_P1;PMS_P2;Temp;Humidity;BMP_temperature;BMP_pressure;BME280_temperature;BME280_humidity;BME280_pressure;Samples;Min_cycle;Max_cycle;Signal;HPM_P1;HPM_P2
2022/05/31 00:02:07;;;;;;;3.90;2.33;;;10.90;99.90;;;;;;5115308;28;21134;-67
2022/05/31 00:04:33;;;;;;;4.60;2.40;;;10.90;99.90;;;;;;5115364;28;20921;-66
2022/05/31 00:06:59;;;;;;;5.30;2.23;;;10.80;99.90;;;;;;5115210;28;20741;-66
2022/05/31 00:09:26;;;;;;;4.63;2.30;;;10.80;99.90;;;;;;5115529;28;20281;-66
2022/05/31 00:11:52;;;;;;;6.57;2.20;;;10.80;99.90;;;;;;5096932;28;20297;-66
2022/05/31 00:14:19;;;;;;;4.77;2.10;;;10.80;99.90;;;;;;5115440;28;20434;-66
2022/05/31 00:16:47;;;;;;;4.70;2.37;;;10.80;99.90;;;;;;5115764;28;20624;-66
2022/05/31 00:19:14;;;;;;;5.30;2.40;;;10.80;99.90;;;;;;5115243;28;20281;-66
2022/05/31 00:21:47;;;;;;;4.37;2.43;;;10.80;99.90;;;;;;5115544;28;20277;-66
2022/05/31 00:24:17;;;;;;;4.87;2.47;;;10.80;99.90;;;;;;5115310;28;20370;-66
2022/05/31 00:26:44;;;;;;;5.53;2.73;;;10.70;99.90;;;;;;5115218;28;20309;-66
2022/05/31 00:29:11;;;;;;;5.17;3.00;;;10.70;99.90;;;;;;5115181;28;20273;-66
2022/05/31 00:31:40;;;;;;;5.83;2.97;;;10.60;99.90;;;;;;5115366;28;20298;-66
2022/05/31 00:34:07;;;;;;;6.27;3.20;;;10.60;99.90;;;;;;5096960;28;20829;-66
2022/05/31 00:36:33;;;;;;;7.50;2.93;;;10.60;99.90;;;;;;5115156;28;20331;-66
2022/05/31 00:38:59;;;;;;;4.87;2.83;;;10.60;99.90;;;;;;5096546;28;20278;-66
2022/05/31 00:41:26;;;;;;;6.13;3.20;;;10.50;99.90;;;;;;5114874;28;20347;-66
2022/05/31 00:44:07;;;;;;;4.57;2.90;;;10.60;99.90;;;;;;5115139;28;20048;-66
2022/05/31 00:46:49;;;;;;;6.73;3.20;;;10.60;99.90;;;;;;5115022;28;20754;-66
2022/05/31 00:49:25;;;;;;;6.53;2.70;;;10.60;99.90;;;;;;5114606;28;20282;-66
2022/05/31 00:51:54;;;;;;;5.17;2.70;;;10.60;99.90;;;;;;5114283;28;20289;-66
2022/05/31 00:54:24;;;;;;;6.53;2.67;;;10.50;99.90;;;;;;5115118;28;20281;-66
2022/05/31 00:56:53;;;;;;;4.77;2.70;;;10.50;99.90;;;;;;5114881;28;20641;-66
2022/05/31 00:59:31;;;;;;;4.87;2.77;;;10.50;99.90;;;;;;5096400;28;20784;-66
2022/05/31 01:01:57;;;;;;;4.57;2.50;;;10.50;99.90;;;;;;5114381;28;20274;-66
2022/05/31 01:04:32;;;;;;;4.40;2.60;;;10.50;99.90;;;;;;5079642;28;20390;-66
2022/05/31 01:06:58;;;;;;;6.60;2.72;;;10.40;99.90;;;;;;5114557;28;20122;-66
2022/05/31 01:09:24;;;;;;;4.40;2.70;;;10.30;99.90;;;;;;5096744;28;20053;-66
2022/05/31 01:11:50;;;;;;;5.17;2.60;;;10.30;99.90;;;;;;5114356;28;20297;-66
2022/05/31 01:14:16;;;;;;;5.13;2.50;;;10.20;99.90;;;;;;5114047;28;20321;-66
2022/05/31 01:17:12;;;;;;;6.03;2.43;;;10.20;99.90;;;;;;5096295;28;20374;-66
2022/05/31 01:19:56;;;;;;;8.80;3.17;;;10.20;99.90;;;;;;5113899;28;20062;-66
2022/05/31 01:22:41;;;;;;;6.43;2.50;;;10.10;99.90;;;;;;5113738;28;20040;-66
2022/05/31 01:25:22;;;;;;;3.72;2.33;;;10.10;99.90;;;;;;5113819;28;20286;-66
2022/05/31 01:28:13;;;;;;;4.33;2.10;;;10.00;99.90;;;;;;5114473;28;20055;-66
2022/05/31 01:30:45;;;;;;;5.63;2.70;;;10.10;99.90;;;;;;5114237;28;20630;-66
2022/05/31 01:33:31;;;;;;;4.20;2.60;;;10.00;99.90;;;;;;5113654;28;20288;-66
2022/05/31 01:36:12;;;;;;;6.20;2.55;;;10.00;99.90;;;;;;5113788;28;20281;-66
2022/05/31 01:38:44;;;;;;;3.83;2.27;;;10.00;99.90;;;;;;5114223;28;20380;-66
2022/05/31 01:41:46;;;;;;;3.90;2.10;;;10.10;99.90;;;;;;5113733;28;20330;-66
2022/05/31 01:44:14;;;;;;;4.47;2.27;;;10.10;99.90;;;;;;5113475;28;20986;-66
2022/05/31 01:46:41;;;;;;;5.53;2.20;;;10.10;99.90;;;;;;5113892;28;20374;-66
2022/05/31 01:49:10;;;;;;;5.53;2.40;;;10.00;99.90;;;;;;5113684;28;20338;-66
2022/05/31 01:51:37;;;;;;;4.63;2.70;;;10.00;99.90;;;;;;5113825;28;20301;-66
2022/05/31 01:54:04;;;;;;;5.37;2.57;;;10.00;99.90;;;;;;5113409;28;20285;-66
2022/05/31 01:56:31;;;;;;;4.87;2.57;;;10.00;99.90;;;;;;5113517;28;20277;-66
2022/05/31 01:58:58;;;;;;;6.13;2.73;;;10.00;99.90;;;;;;5113760;28;20281;-66
2022/05/31 02:01:26;;;;;;;5.40;2.47;;;10.00;99.90;;;;;;5113358;28;20282;-66
2022/05/31 02:03:52;;;;;;;6.13;2.60;;;10.00;99.90;;;;;;5113569;28;20282;-66
2022/05/31 02:06:23;;;;;;;4.47;2.40;;;10.00;99.90;;;;;;5113177;28;20377;-66
2022/05/31 02:08:49;;;;;;;4.70;2.50;;;10.10;99.90;;;;;;5113424;28;20055;-66
2022/05/31 02:11:15;;;;;;;7.90;2.63;;;10.10;99.90;;;;;;5112917;28;20316;-66
2022/05/31 02:13:40;;;;;;;5.83;2.60;;;10.00;99.90;;;;;;5095327;28;20092;-66
2022/05/31 02:16:07;;;;;;;6.23;2.77;;;10.00;99.90;;;;;;5113323;28;20054;-66
2022/05/31 02:21:17;;;;;;;5.73;2.60;;;10.10;99.90;;;;;;5113014;28;20269;-66
2022/05/31 02:23:43;;;;;;;4.73;2.67;;;10.00;99.90;;;;;;5113063;28;20419;-66
2022/05/31 02:26:08;;;;;;;5.43;2.60;;;10.10;99.90;;;;;;5113135;28;20055;-66
2022/05/31 02:28:34;;;;;;;5.03;2.40;;;10.10;99.90;;;;;;5095407;28;20361;-66
2022/05/31 02:31:00;;;;;;;4.40;2.33;;;10.10;99.90;;;;;;5113168;28;20120;-66
2022/05/31 02:33:25;;;;;;;6.03;2.67;;;10.10;99.90;;;;;;5112883;28;20390;-66
2022/05/31 02:35:51;;;;;;;5.03;2.63;;;10.00;99.90;;;;;;5097417;28;20096;-66
2022/05/31 02:38:17;;;;;;;5.63;2.40;;;10.00;99.90;;;;;;5117105;28;20043;-66
2022/05/31 02:40:42;;;;;;;4.23;2.40;;;10.10;99.90;;;;;;5117910;28;20052;-66
2022/05/31 02:43:09;;;;;;;5.47;2.43;;;10.10;99.90;;;;;;5117167;28;20047;-67
2022/05/31 02:45:35;;;;;;;5.03;2.70;;;10.00;99.90;;;;;;5117338;28;20051;-66
2022/05/31 02:48:01;;;;;;;6.00;2.90;;;10.00;99.90;;;;;;5117346;28;20629;-66
2022/05/31 02:50:27;;;;;;;4.30;2.40;;;10.00;99.90;;;;;;5116819;28;20277;-66
2022/05/31 02:52:52;;;;;;;5.13;2.40;;;10.10;99.90;;;;;;5116916;28;20173;-66
2022/05/31 02:55:18;;;;;;;6.20;2.97;;;10.10;99.90;;;;;;5116736;28;20048;-66
2022/05/31 02:57:44;;;;;;;3.73;2.27;;;10.00;99.90;;;;;;5098869;28;20048;-66
2022/05/31 03:00:10;;;;;;;5.13;2.40;;;10.00;99.90;;;;;;5117211;28;20126;-66
2022/05/31 03:02:37;;;;;;;6.93;2.30;;;10.10;99.90;;;;;;5117173;28;20177;-66
2022/05/31 03:05:04;;;;;;;5.37;2.60;;;10.10;99.90;;;;;;5116817;28;20273;-66
2022/05/31 03:07:29;;;;;;;6.60;2.87;;;10.10;99.90;;;;;;5116459;28;20356;-66
2022/05/31 03:09:55;;;;;;;7.27;2.70;;;10.10;99.90;;;;;;5116922;28;20365;-66
2022/05/31 03:12:24;;;;;;;4.07;2.27;;;10.10;99.90;;;;;;5116539;28;20051;-66
2022/05/31 03:15:05;;;;;;;6.27;2.70;;;10.10;99.90;;;;;;5116916;28;20056;-66
2022/05/31 03:17:35;;;;;;;5.07;2.40;;;10.10;99.90;;;;;;5116430;28;20301;-66
2022/05/31 03:20:12;;;;;;;3.87;2.30;;;10.10;99.90;;;;;;5116545;28;20277;-66
2022/05/31 03:22:44;;;;;;;4.70;2.40;;;10.10;99.90;;;;;;5098734;28;20292;-66
2022/05/31 03:25:18;;;;;;;4.23;2.60;;;10.10;99.90;;;;;;5116576;28;20292;-66
2022/05/31 03:27:45;;;;;;;6.27;2.60;;;10.10;99.90;;;;;;5116607;28;20288;-66
2022/05/31 03:30:11;;;;;;;5.67;2.27;;;10.10;99.90;;;;;;5116450;28;20273;-66
2022/05/31 03:32:37;;;;;;;5.93;2.40;;;10.10;99.90;;;;;;5115973;28;20289;-66
2022/05/31 03:35:05;;;;;;;6.90;3.10;;;10.10;99.90;;;;;;5116439;28;20659;-66
2022/05/31 03:37:30;;;;;;;4.90;2.67;;;10.10;99.90;;;;;;5116128;28;20092;-66
2022/05/31 03:39:56;;;;;;;6.40;3.00;;;10.10;99.90;;;;;;5116420;28;20651;-66
2022/05/31 03:42:22;;;;;;;4.60;2.20;;;10.10;99.90;;;;;;5098010;28;20040;-66
2022/05/31 03:44:47;;;;;;;4.60;2.50;;;10.10;99.90;;;;;;5097953;28;20089;-66
2022/05/31 03:47:13;;;;;;;6.43;2.87;;;10.10;99.90;;;;;;5097284;28;20096;-66
2022/05/31 03:49:39;;;;;;;6.73;2.73;;;10.10;99.90;;;;;;5115835;28;20075;-66
2022/05/31 03:52:05;;;;;;;4.50;2.77;;;10.10;99.90;;;;;;5115943;28;20101;-66
2022/05/31 03:54:35;;;;;;;4.90;2.63;;;10.10;99.90;;;;;;5115612;28;20130;-66
2022/05/31 03:57:01;;;;;;;4.57;2.70;;;10.10;99.90;;;;;;5116011;28;20768;-66
2022/05/31 03:59:27;;;;;;;4.67;2.67;;;10.10;99.90;;;;;;5115534;28;20274;-66
2022/05/31 04:01:52;;;;;;;7.27;3.03;;;10.10;99.90;;;;;;5115837;28;20436;-66
2022/05/31 04:04:18;;;;;;;7.27;3.03;;;10.10;99.90;;;;;;5115693;28;20540;-66
2022/05/31 04:06:44;;;;;;;5.30;2.90;;;10.10;99.90;;;;;;5116149;28;20075;-66
2022/05/31 04:09:09;;;;;;;5.43;2.97;;;10.10;99.90;;;;;;5097606;28;20481;-66
2022/05/31 04:11:36;;;;;;;4.57;2.50;;;10.20;99.90;;;;;;5115354;28;20127;-66
2022/05/31 04:14:02;;;;;;;6.97;2.63;;;10.20;99.90;;;;;;5115547;28;20048;-66
2022/05/31 04:16:28;;;;;;;5.00;2.60;;;10.20;99.90;;;;;;5115283;28;20292;-66
2022/05/31 04:18:54;;;;;;;6.07;3.10;;;10.10;99.90;;;;;;5115610;28;20403;-66
2022/05/31 04:21:20;;;;;;;6.47;2.87;;;10.20;99.90;;;;;;5115515;28;20284;-66
2022/05/31 04:23:59;;;;;;;6.00;2.80;;;10.20;99.90;;;;;;5115299;28;20298;-66
2022/05/31 04:26:26;;;;;;;4.77;2.83;;;10.20;99.90;;;;;;5114951;28;20556;-66
2022/05/31 04:28:53;;;;;;;5.23;2.30;;;10.20;99.90;;;;;;5115170;28;20270;-66
2022/05/31 04:31:19;;;;;;;6.33;2.93;;;10.20;99.90;;;;;;5115210;28;20297;-66
2022/05/31 04:33:45;;;;;;;6.87;2.97;;;10.30;99.90;;;;;;5115079;28;20387;-66
2022/05/31 04:36:13;;;;;;;5.60;2.97;;;10.30;99.90;;;;;;5096994;28;20047;-66
2022/05/31 04:38:40;;;;;;;5.67;3.30;;;10.30;99.90;;;;;;5114786;28;20043;-66
2022/05/31 04:41:06;;;;;;;4.83;2.73;;;10.30;99.90;;;;;;5114956;28;20352;-67
2022/05/31 04:43:34;;;;;;;4.20;2.57;;;10.30;99.90;;;;;;5114494;28;20273;-67
2022/05/31 04:46:18;;;;;;;6.00;2.60;;;10.30;99.90;;;;;;5114955;28;20287;-66
2022/05/31 04:48:45;;;;;;;5.87;3.03;;;10.40;99.90;;;;;;5114692;28;20277;-67
2022/05/31 04:51:11;;;;;;;5.47;2.77;;;10.30;99.90;;;;;;5114728;28;20289;-66
2022/05/31 04:53:37;;;;;;;4.83;3.07;;;10.40;99.90;;;;;;5114492;28;20281;-66
2022/05/31 04:56:05;;;;;;;6.03;3.00;;;10.40;99.90;;;;;;5114571;28;20277;-67
2022/05/31 04:58:32;;;;;;;8.63;3.40;;;10.40;99.90;;;;;;5113696;28;20349;-67
2022/05/31 05:01:01;;;;;;;5.30;2.80;;;10.50;99.90;;;;;;5114799;28;20278;-67
2022/05/31 05:03:29;;;;;;;4.53;2.77;;;10.50;99.90;;;;;;5114441;28;20293;-67
2022/05/31 05:05:59;;;;;;;6.40;3.20;;;10.50;99.90;;;;;;5114611;28;20398;-66
2022/05/31 05:08:25;;;;;;;7.30;3.03;;;10.60;99.90;;;;;;5114390;28;20295;-67
2022/05/31 05:10:50;;;;;;;5.30;2.90;;;10.60;99.90;;;;;;5114564;28;20281;-66
2022/05/31 05:13:16;;;;;;;6.43;3.07;;;10.60;99.90;;;;;;5114570;28;20083;-67
2022/05/31 05:15:42;;;;;;;6.40;3.00;;;10.60;99.90;;;;;;5114409;28;20469;-67
2022/05/31 05:18:09;;;;;;;4.57;2.73;;;10.70;99.90;;;;;;5114384;28;20039;-66
2022/05/31 05:20:39;;;;;;;5.80;3.13;;;10.70;99.90;;;;;;5114027;28;20047;-67
2022/05/31 05:23:05;;;;;;;7.17;2.83;;;10.70;99.90;;;;;;5114156;28;20308;-66
2022/05/31 05:25:32;;;;;;;5.63;3.07;;;10.70;99.90;;;;;;5113740;28;20285;-66
2022/05/31 05:27:57;;;;;;;6.13;3.23;;;10.70;99.90;;;;;;5114257;28;20277;-66
2022/05/31 05:30:38;;;;;;;5.27;2.90;;;10.80;99.90;;;;;;5114030;28;20771;-66
2022/05/31 05:33:04;;;;;;;5.63;3.40;;;10.80;99.90;;;;;;5114038;28;20035;-66
2022/05/31 05:35:30;;;;;;;4.87;2.80;;;10.80;99.90;;;;;;5113667;28;20624;-67
2022/05/31 05:37:55;;;;;;;6.47;3.50;;;10.80;99.90;;;;;;5079440;28;20051;-67
2022/05/31 05:40:21;;;;;;;5.00;3.00;;;10.80;99.90;;;;;;5113919;28;20043;-66
2022/05/31 05:42:47;;;;;;;8.63;3.30;;;10.90;99.90;;;;;;5113391;28;20043;-66
2022/05/31 05:45:13;;;;;;;5.23;3.27;;;10.90;99.90;;;;;;5114114;28;20054;-66
2022/05/31 05:47:39;;;;;;;6.37;2.70;;;11.10;99.90;;;;;;5113437;28;20040;-67
2022/05/31 05:50:05;;;;;;;5.40;3.07;;;11.20;99.90;;;;;;5113661;28;20274;-65
2022/05/31 05:52:32;;;;;;;6.83;2.97;;;11.30;99.90;;;;;;5095575;28;20140;-66
2022/05/31 05:54:58;;;;;;;5.27;2.87;;;11.50;99.90;;;;;;5096078;28;20313;-67
2022/05/31 05:57:24;;;;;;;5.00;2.73;;;11.60;99.90;;;;;;5113801;28;20749;-66
2022/05/31 05:59:49;;;;;;;5.03;2.90;;;11.80;99.90;;;;;;5113274;28;20047;-66
2022/05/31 06:02:18;;;;;;;4.13;2.70;;;;;;;;;;5113456;28;20465;-66
2022/05/31 06:04:50;;;;;;;5.97;3.27;;;12.30;99.90;;;;;;5113141;28;20039;-66
2022/05/31 06:07:32;;;;;;;6.13;2.70;;;12.40;99.90;;;;;;5113644;28;20281;-66
2022/05/31 06:10:21;;;;;;;6.27;3.00;;;12.60;99.90;;;;;;5095127;28;20325;-66
2022/05/31 06:12:55;;;;;;;5.13;2.60;;;12.60;99.90;;;;;;5113240;28;20709;-66
2022/05/31 06:15:27;;;;;;;4.97;2.90;;;12.50;99.90;;;;;;5113561;28;20754;-66
2022/05/31 06:17:55;;;;;;;5.93;2.70;;;12.50;99.90;;;;;;5113171;28;20356;-65
2022/05/31 06:20:22;;;;;;;4.93;2.77;;;12.40;99.90;;;;;;5113508;28;20360;-66
2022/05/31 06:22:49;;;;;;;4.97;2.60;;;12.50;99.90;;;;;;5095143;28;20289;-66
2022/05/31 06:25:17;;;;;;;6.30;2.77;;;12.60;99.90;;;;;;5113133;28;20430;-66
2022/05/31 06:27:42;;;;;;;5.17;2.57;;;12.60;99.90;;;;;;5113114;28;20278;-66
2022/05/31 06:30:09;;;;;;;7.23;3.33;;;;;;;;;;5113559;28;20368;-66
2022/05/31 06:32:35;;;;;;;6.53;2.23;;;;;;;;;;5113481;28;20039;-66
2022/05/31 06:35:01;;;;;;;5.87;2.77;;;12.70;99.90;;;;;;5113242;28;20334;-66
2022/05/31 06:37:29;;;;;;;4.90;2.60;;;12.70;99.90;;;;;;5113459;28;20277;-66
2022/05/31 06:39:55;;;;;;;6.33;2.40;;;;;;;;;;5113124;28;20282;-66
2022/05/31 06:42:21;;;;;;;6.37;2.50;;;13.00;99.90;;;;;;5113144;28;20274;-66
2022/05/31 06:44:46;;;;;;;5.20;2.97;;;13.30;99.90;;;;;;5113199;28;20667;-66
2022/05/31 06:47:12;;;;;;;7.07;2.43;;;13.70;99.90;;;;;;5113145;28;20051;-66
2022/05/31 06:49:39;;;;;;;7.03;2.87;;;13.80;99.90;;;;;;5113230;28;20079;-66
2022/05/31 06:57:40;;;;;;;6.00;2.47;;;13.80;99.90;;;;;;5113490;28;20667;-66
2022/05/31 07:00:08;;;;;;;4.70;2.33;;;13.70;99.90;;;;;;5113229;28;20277;-66
2022/05/31 07:02:35;;;;;;;7.03;2.90;;;13.70;99.90;;;;;;5113139;28;20326;-66
2022/05/31 07:05:01;;;;;;;7.20;2.53;;;13.60;99.90;;;;;;5112847;28;20724;-66
2022/05/31 07:07:26;;;;;;;7.30;2.87;;;13.60;99.90;;;;;;5112880;28;20273;-66
2022/05/31 07:09:52;;;;;;;4.90;2.60;;;13.50;99.90;;;;;;5112773;28;20047;-66
2022/05/31 07:12:19;;;;;;;5.63;3.10;;;13.60;99.90;;;;;;5113094;28;20040;-66
2022/05/31 07:14:44;;;;;;;7.13;2.93;;;13.60;99.90;;;;;;5094801;28;20402;-66
2022/05/31 07:17:10;;;;;;;6.90;2.93;;;13.60;99.90;;;;;;5113077;28;20763;-66
2022/05/31 07:19:36;;;;;;;6.07;2.77;;;;;;;;;;5094690;28;20039;-66
2022/05/31 07:22:02;;;;;;;5.43;2.70;;;14.10;99.90;;;;;;5115152;28;20047;-66
2022/05/31 07:24:30;;;;;;;5.17;2.40;;;;;;;;;;5116803;28;20285;-66
2022/05/31 07:26:56;;;;;;;6.03;2.47;;;15.90;99.90;;;;;;5116687;28;20058;-66
2022/05/31 07:29:22;;;;;;;5.33;2.30;;;;;;;;;;5116656;28;20633;-66
2022/05/31 07:31:48;;;;;;;6.40;2.40;;;18.70;97.40;;;;;;5116458;28;20040;-67
2022/05/31 07:34:15;;;;;;;8.90;2.27;;;19.90;89.80;;;;;;5116604;28;20368;-67
2022/05/31 07:36:41;;;;;;;4.47;1.90;;;20.90;91.30;;;;;;5116290;28;20104;-67
2022/05/31 07:39:15;;;;;;;9.27;2.60;;;21.50;78.10;;;;;;5116394;28;20094;-67
2022/05/31 07:41:41;;;;;;;5.00;2.15;;;22.40;53.60;;;;;;5116699;28;20388;-67
2022/05/31 07:44:08;;;;;;;5.27;2.30;;;22.50;64.60;;;;;;5098012;28;20074;-67
2022/05/31 07:46:34;;;;;;;6.00;2.33;;;;;;;;;;5116370;28;20048;-67
2022/05/31 07:49:01;;;;;;;6.47;2.60;;;;;;;;;;5098083;28;20051;-67
2022/05/31 07:51:28;;;;;;;5.23;2.43;;;20.60;59.10;;;;;;5116293;28;20043;-67
2022/05/31 07:53:54;;;;;;;6.17;2.43;;;21.00;63.70;;;;;;5116164;28;20051;-67
2022/05/31 07:56:21;;;;;;;5.77;2.40;;;21.50;59.80;;;;;;5116191;28;20043;-67
2022/05/31 07:58:47;;;;;;;5.57;2.50;;;22.40;57.70;;;;;;5098183;28;20051;-67
2022/05/31 08:01:15;;;;;;;5.27;2.30;;;;;;;;;;5116115;28;20134;-67
2022/05/31 08:03:42;;;;;;;4.77;2.17;;;;;;;;;;5115883;28;20105;-67
2022/05/31 08:06:14;;;;;;;4.93;2.10;;;24.70;49.90;;;;;;5097195;28;20144;-67
2022/05/31 08:08:40;;;;;;;5.20;2.50;;;25.00;49.60;;;;;;5116082;28;20060;-67
2022/05/31 08:11:10;;;;;;;3.97;2.00;;;25.10;48.90;;;;;;5115659;28;20380;-67
2022/05/31 08:13:36;;;;;;;4.73;2.10;;;24.90;47.20;;;;;;5115786;28;20505;-67
2022/05/31 08:16:04;;;;;;;5.63;2.37;;;25.60;46.80;;;;;;5115557;28;20047;-67
2022/05/31 08:18:30;;;;;;;6.73;2.30;;;25.80;44.30;;;;;;5115817;28;20102;-67
2022/05/31 08:21:05;;;;;;;4.47;2.00;;;25.90;43.90;;;;;;5115520;28;20039;-68
2022/05/31 08:23:31;;;;;;;9.88;2.10;;;26.20;39.80;;;;;;5115571;28;20039;-68
2022/05/31 08:25:57;;;;;;;5.83;2.60;;;26.40;39.70;;;;;;5115231;28;20092;-68
2022/05/31 08:28:23;;;;;;;7.37;2.47;;;26.60;42.30;;;;;;5115534;28;20130;-68
2022/05/31 08:30:52;;;;;;;7.07;2.67;;;26.60;40.90;;;;;;5115364;28;20094;-68
2022/05/31 08:33:18;;;;;;;6.70;2.73;;;26.60;40.20;;;;;;5115693;28;20039;-68
2022/05/31 08:35:44;;;;;;;5.43;2.33;;;;;;;;;;5115551;28;20560;-68
2022/05/31 08:38:10;;;;;;;6.07;2.50;;;26.50;70.70;;;;;;5115273;28;20498;-68
2022/05/31 08:40:50;;;;;;;6.28;2.47;;;25.90;39.50;;;;;;5115528;28;20082;-68
2022/05/31 08:43:18;;;;;;;5.33;2.30;;;;;;;;;;5115018;28;20086;-68
2022/05/31 08:45:52;;;;;;;6.37;2.67;;;24.80;40.10;;;;;;5115334;28;20051;-67
2022/05/31 08:48:27;;;;;;;6.95;2.25;;;23.90;40.80;;;;;;5115510;28;20116;-67
2022/05/31 08:56:57;;;;;;;7.77;2.83;;;22.80;42.80;;;;;;5115045;28;19920;-67
2022/05/31 08:59:52;;;;;;;6.00;2.80;;;22.40;42.00;;;;;;5114974;28;20051;-67
2022/05/31 09:02:44;;;;;;;6.97;2.90;;;22.10;42.20;;;;;;5107989;28;20499;-67
2022/05/31 09:05:15;;;;;;;5.67;2.80;;;21.90;43.10;;;;;;5103427;28;20091;-67
2022/05/31 09:07:59;;;;;;;10.60;3.63;;;21.50;43.10;;;;;;5114730;28;20043;-67
2022/05/31 09:10:36;;;;;;;7.15;3.80;;;21.30;43.40;;;;;;5114703;28;20044;-67
2022/05/31 09:13:10;;;;;;;6.87;3.07;;;20.90;43.40;;;;;;5114614;28;20148;-67
2022/05/31 09:15:47;;;;;;;6.90;2.90;;;20.50;43.90;;;;;;5114945;28;20043;-67
2022/05/31 09:18:22;;;;;;;8.63;3.90;;;20.20;45.70;;;;;;5114442;28;20051;-67
2022/05/31 09:21:01;;;;;;;9.17;4.13;;;20.10;45.10;;;;;;5114330;28;20048;-67
2022/05/31 09:23:31;;;;;;;6.43;3.87;;;19.80;45.60;;;;;;5114909;28;20130;-67
2022/05/31 09:26:16;;;;;;;11.43;4.53;;;19.60;45.90;;;;;;5113940;28;20060;-67
2022/05/31 09:28:54;;;;;;;8.85;4.38;;;19.40;45.70;;;;;;5114581;28;20047;-67
2022/05/31 09:31:43;;;;;;;7.73;4.23;;;19.20;46.30;;;;;;5095997;28;20399;-67
2022/05/31 09:34:31;;;;;;;7.43;4.43;;;19.00;46.70;;;;;;5114302;28;20100;-67
2022/05/31 09:37:11;;;;;;;8.10;2.87;;;18.90;47.70;;;;;;5079459;28;20093;-66
2022/05/31 09:39:40;;;;;;;8.80;3.07;;;;;;;;;;5114129;28;20043;-67
2022/05/31 09:42:20;;;;;;;10.60;3.27;;;18.90;76.60;;;;;;5114011;28;20051;-67
2022/05/31 09:44:57;;;;;;;6.67;2.90;;;19.20;57.80;;;;;;5113843;28;20047;-66
2022/05/31 09:47:27;;;;;;;11.33;3.60;;;19.20;51.50;;;;;;5113804;28;20100;-67
2022/05/31 09:49:54;;;;;;;6.57;3.13;;;19.30;51.30;;;;;;5113860;28;20086;-67
2022/05/31 09:52:31;;;;;;;6.10;3.23;;;19.20;52.40;;;;;;5113816;28;20195;-67
2022/05/31 09:58:10;;;;;;;8.70;3.10;;;19.10;56.10;;;;;;5113604;28;20085;-67
2022/05/31 10:00:38;;;;;;;7.67;2.90;;;;;;;;;;5095825;28;20457;-67
2022/05/31 10:03:12;;;;;;;7.53;2.57;;;19.30;78.80;;;;;;5113667;28;20046;-67
2022/05/31 10:05:40;;;;;;;6.50;2.47;;;19.30;50.70;;;;;;5114044;28;20040;-66
2022/05/31 10:08:32;;;;;;;9.23;3.30;;;19.30;50.60;;;;;;5113495;28;20058;-67
2022/05/31 10:11:05;;;;;;;9.33;3.17;;;19.30;50.60;;;;;;5105682;28;20114;-67
2022/05/31 10:13:40;;;;;;;7.43;3.00;;;19.30;49.80;;;;;;5096166;28;20047;-66
2022/05/31 10:16:17;;;;;;;9.23;3.90;;;19.60;50.40;;;;;;5113357;28;20112;-67
2022/05/31 10:18:57;;;;;;;8.77;3.00;;;19.60;62.60;;;;;;5113498;28;20068;-66
2022/05/31 10:21:43;;;;;;;8.60;3.90;;;19.70;63.20;;;;;;5095340;28;20526;-66
2022/05/31 10:24:26;;;;;;;8.13;3.70;;;19.70;65.80;;;;;;5113397;28;20052;-66
2022/05/31 10:27:26;;;;;;;6.60;3.47;;;19.60;65.60;;;;;;5113854;28;20055;-66
2022/05/31 10:30:02;;;;;;;8.50;2.90;;;19.50;66.10;;;;;;5112918;28;20055;-67
2022/05/31 10:32:43;;;;;;;7.30;3.10;;;19.70;66.30;;;;;;5113240;28;20044;-66
2022/05/31 10:35:17;;;;;;;6.87;3.20;;;19.60;62.70;;;;;;5113260;28;20043;-67
2022/05/31 10:37:55;;;;;;;6.97;2.75;;;19.70;61.70;;;;;;5113421;28;20051;-67
2022/05/31 10:40:26;;;;;;;8.27;3.33;;;19.60;58.40;;;;;;5095461;28;20454;-66
2022/05/31 10:42:56;;;;;;;7.27;3.50;;;19.60;59.00;;;;;;5113655;28;20088;-66
2022/05/31 10:45:26;;;;;;;6.67;2.93;;;19.60;59.40;;;;;;5113095;28;20047;-66
2022/05/31 10:47:56;;;;;;;7.90;3.10;;;19.60;59.30;;;;;;5113306;28;20050;-67
2022/05/31 10:50:39;;;;;;;8.23;3.17;;;19.50;58.60;;;;;;5112894;28;20097;-66
2022/05/31 10:53:22;;;;;;;8.27;3.90;;;19.50;58.80;;;;;;5113309;28;20475;-66
2022/05/31 10:56:11;;;;;;;9.00;3.70;;;19.50;55.00;;;;;;5113924;28;20047;-66
2022/05/31 10:58:43;;;;;;;7.90;3.77;;;19.40;58.00;;;;;;5117231;28;20047;-66
2022/05/31 11:01:23;;;;;;;7.27;3.37;;;19.20;48.00;;;;;;5117233;28;20127;-67
2022/05/31 11:04:27;;;;;;;8.87;3.57;;;19.10;64.30;;;;;;5117265;28;20515;-66
2022/05/31 11:07:05;;;;;;;7.13;2.90;;;19.30;61.80;;;;;;5054202;28;20045;-67
2022/05/31 11:12:46;;;;;;;6.17;2.67;;;19.20;46.10;;;;;;5116955;28;20116;-66
2022/05/31 11:15:46;;;;;;;6.07;2.93;;;19.30;46.30;;;;;;5116965;28;20136;-66
2022/05/31 11:19:04;;;;;;;6.03;2.70;;;19.30;45.70;;;;;;5116884;28;20126;-66
2022/05/31 11:21:42;;;;;;;8.53;3.20;;;19.20;45.20;;;;;;5082727;28;20048;-66
2022/05/31 11:24:11;;;;;;;7.60;3.10;;;;;;;;;;5117015;28;20465;-66
2022/05/31 11:26:46;;;;;;;7.37;2.67;;;;;;;;;;5117280;28;20058;-67
2022/05/31 11:29:12;;;;;;;;;;;19.60;46.00;;;;;;5117120;28;20493;-67
2022/05/31 11:31:54;;;;;;;9.27;2.93;;;19.60;46.00;;;;;;5116701;28;19926;-67
2022/05/31 11:34:44;;;;;;;7.30;3.40;;;19.50;46.10;;;;;;5116365;28;20048;-67
2022/05/31 11:37:45;;;;;;;7.70;3.47;;;19.40;45.50;;;;;;5116659;28;20040;-66
2022/05/31 11:40:28;;;;;;;6.37;3.10;;;19.20;45.40;;;;;;5111741;28;20044;-66
2022/05/31 11:43:29;;;;;;;8.33;3.70;;;19.00;46.00;;;;;;5116687;28;20050;-66
2022/05/31 11:46:12;;;;;;;7.73;3.23;;;18.90;46.10;;;;;;5116629;28;20051;-66
2022/05/31 11:48:56;;;;;;;7.23;3.20;;;18.80;46.60;;;;;;5116281;28;20043;-66
2022/05/31 11:51:44;;;;;;;7.13;3.10;;;18.80;48.00;;;;;;5116082;28;20090;-66
2022/05/31 11:54:18;;;;;;;7.63;3.27;;;18.70;47.40;;;;;;5116502;28;20048;-66
2022/05/31 11:56:53;;;;;;;;;;;18.70;47.90;;;;;;5116630;28;20051;-66
2022/05/31 11:59:25;;;;;;;9.13;3.83;;;18.70;48.40;;;;;;5115793;28;19927;-67
2022/05/31 12:02:11;;;;;;;8.63;3.80;;;18.70;48.10;;;;;;5116194;28;20273;-66
2022/05/31 12:04:46;;;;;;;7.20;3.77;;;18.70;47.80;;;;;;5115753;28;20047;-67
2022/05/31 12:07:21;;;;;;;7.30;3.90;;;18.70;48.50;;;;;;5115574;28;20050;-66
2022/05/31 12:09:50;;;;;;;9.97;4.13;;;18.70;48.70;;;;;;5115735;28;20051;-67
2022/05/31 12:12:30;;;;;;;9.03;4.57;;;18.70;48.70;;;;;;5115740;28;20472;-66
2022/05/31 12:15:11;;;;;;;12.43;4.63;;;18.70;48.70;;;;;;5115905;28;20061;-66
2022/05/31 12:17:54;;;;;;;11.67;5.40;;;18.70;48.90;;;;;;5115482;28;20584;-66
2022/05/31 12:20:23;;;;;;;9.00;4.50;;;18.60;48.80;;;;;;5115593;28;20097;-67
2022/05/31 12:23:21;;;;;;;11.27;4.70;;;18.60;49.30;;;;;;5115657;28;20051;-66
2022/05/31 12:25:52;;;;;;;9.47;4.77;;;18.50;49.80;;;;;;5110810;28;20103;-66
2022/05/31 12:28:42;;;;;;;6.37;3.87;;;18.50;49.80;;;;;;5115481;28;20071;-66
2022/05/31 12:31:24;;;;;;;6.67;3.13;;;18.50;49.70;;;;;;5107539;28;20499;-67
2022/05/31 12:33:50;;;;;;;7.77;3.50;;;18.50;49.60;;;;;;5115596;28;20052;-66
2022/05/31 12:36:24;;;;;;;7.50;3.67;;;18.50;49.50;;;;;;5115283;28;20050;-66
2022/05/31 12:38:58;;;;;;;7.73;4.57;;;18.40;50.00;;;;;;5115175;28;20044;-66
2022/05/31 12:41:37;;;;;;;12.57;3.65;;;18.40;49.50;;;;;;5114851;28;20503;-67
2022/05/31 12:44:33;;;;;;;8.77;3.60;;;18.40;49.50;;;;;;5115336;28;20048;-67
2022/05/31 12:47:22;;;;;;;9.50;3.97;;;18.30;50.40;;;;;;5109825;28;20052;-66
2022/05/31 12:50:02;;;;;;;8.60;3.20;;;18.40;50.30;;;;;;5115350;28;20043;-66
2022/05/31 12:52:50;;;;;;;8.30;3.37;;;18.30;49.90;;;;;;5114687;28;20388;-67
2022/05/31 12:55:25;;;;;;;7.27;3.53;;;18.30;49.70;;;;;;5115004;28;20062;-66
2022/05/31 13:00:51;;;;;;;7.33;3.30;;;18.20;50.10;;;;;;5097121;28;20067;-66
2022/05/31 13:03:32;;;;;;;6.87;3.60;;;18.10;49.40;;;;;;5114815;28;20051;-66
2022/05/31 13:06:22;;;;;;;8.17;3.80;;;18.20;49.10;;;;;;5114525;28;20059;-66
2022/05/31 13:08:56;;;;;;;12.20;3.57;;;18.20;48.90;;;;;;5114658;28;20046;-66
2022/05/31 13:20:23;;;;;;;7.67;3.37;;;18.40;49.40;;;;;;5113879;28;20052;-66
2022/05/31 13:22:54;;;;;;;9.87;3.63;;;18.50;49.70;;;;;;5095747;28;20423;-66
2022/05/31 13:25:30;;;;;;;6.77;2.83;;;18.50;49.40;;;;;;5114478;28;20128;-66
2022/05/31 13:27:58;;;;;;;6.57;3.20;;;18.60;49.90;;;;;;5114427;28;20556;-66
2022/05/31 13:30:27;;;;;;;6.30;3.43;;;18.60;49.20;;;;;;5114303;28;20048;-67
2022/05/31 13:32:53;;;;;;;9.53;3.90;;;18.60;49.40;;;;;;5114099;28;20135;-66
2022/05/31 13:35:27;;;;;;;9.43;3.90;;;;;;;;;;5114063;28;20073;-66
2022/05/31 13:37:58;;;;;;;8.73;4.07;;;18.70;49.90;;;;;;5114126;28;20442;-66
2022/05/31 13:40:54;;;;;;;8.53;3.80;;;18.80;50.50;;;;;;5114162;28;20051;-66
2022/05/31 13:43:33;;;;;;;7.60;3.60;;;18.80;50.10;;;;;;5112642;28;20052;-67
2022/05/31 13:46:05;;;;;;;7.27;3.93;;;18.90;50.20;;;;;;5114012;28;20476;-66
2022/05/31 13:48:37;;;;;;;6.27;3.73;;;19.00;50.50;;;;;;5113952;28;20098;-67
2022/05/31 13:51:11;;;;;;;8.00;3.77;;;19.10;50.00;;;;;;5114072;28;20616;-67